Time;durP1;ratioP1;P1;durP2;ratioP2;P2;SDS_P1;SDS_P2;PMS_P1;PMS_P2;Temp;Humidity;BMP_temperature;BMP_pressure;BME280_temperature;BME280_humidity;BME280_pressure;Samples;Min_cycle;Max_cycle;Signal;HPM_P1;HPM_P2
2024/01/29 00:01:36;;;;;;;9.05;5.90;;;;;;;3.36;89.70;101198.06;5093228;28;20028;-73
2024/01/29 00:04:01;;;;;;;10.30;5.93;;;;;;;3.60;87.78;101207.16;5092900;28;20027;-73
2024/01/29 00:06:27;;;;;;;11.02;7.10;;;;;;;3.76;86.72;101204.69;5108975;28;20109;-73
2024/01/29 00:08:52;;;;;;;10.73;6.72;;;;;;;3.65;86.15;101206.44;5092930;28;20040;-72
2024/01/29 00:11:19;;;;;;;9.98;6.50;;;;;;;3.47;86.60;101215.75;5112910;28;20026;-73
2024/01/29 00:13:46;;;;;;;11.20;6.35;;;;;;;2.81;91.13;101205.72;5113537;28;20015;-73
2024/01/29 00:16:12;;;;;;;10.52;7.20;;;;;;;2.87;91.83;101204.75;5093209;28;20035;-73
2024/01/29 00:18:38;;;;;;;11.32;5.72;;;;;;;2.53;94.66;101215.53;5103851;28;20474;-73
2024/01/29 00:21:03;;;;;;;10.27;6.65;;;;;;;2.60;95.35;101212.69;5093411;28;20031;-73
2024/01/29 00:23:30;;;;;;;10.80;6.47;;;;;;;2.91;93.57;101202.34;5091418;28;20052;-73
2024/01/29 00:25:55;;;;;;;14.57;10.85;;;;;;;2.93;93.06;101200.19;5092472;28;20024;-73
2024/01/29 00:28:21;;;;;;;13.18;7.03;;;;;;;3.27;91.84;101207.84;5092806;28;20076;-72
2024/01/29 00:30:46;;;;;;;9.63;6.43;;;;;;;3.43;90.17;101225.59;5094231;28;20044;-73
2024/01/29 00:33:12;;;;;;;12.45;6.88;;;;;;;3.53;89.46;101217.50;5108290;28;20028;-73
2024/01/29 00:35:37;;;;;;;11.90;6.47;;;;;;;3.30;90.39;101216.47;5092584;28;20065;-73
2024/01/29 00:38:03;;;;;;;16.08;7.45;;;;;;;3.47;90.33;101224.88;5092836;28;20028;-73
2024/01/29 00:40:31;;;;;;;10.77;6.75;;;;;;;3.57;89.53;101227.03;5100719;28;20043;-73
2024/01/29 00:42:56;;;;;;;11.25;6.00;;;;;;;3.30;90.93;101229.50;5111454;28;20476;-73
2024/01/29 00:45:21;;;;;;;13.15;7.40;;;;;;;3.18;91.75;101230.34;5106474;27;20024;-73
2024/01/29 00:47:47;;;;;;;11.40;6.70;;;;;;;3.31;91.45;101229.22;5092444;28;20053;-73
2024/01/29 00:50:12;;;;;;;14.73;8.25;;;;;;;3.39;90.93;101236.34;5091460;28;20668;-73
2024/01/29 00:52:39;;;;;;;11.88;7.97;;;;;;;3.43;90.67;101239.44;5092490;28;20104;-73
2024/01/29 00:55:05;;;;;;;14.93;9.45;;;;;;;3.42;91.21;101233.06;5091645;28;20028;-73
2024/01/29 00:57:30;;;;;;;13.65;7.78;;;;;;;3.40;90.65;101243.53;5096457;28;20034;-73
2024/01/29 00:59:55;;;;;;;13.18;9.27;;;;;;;3.45;91.59;101240.88;5110720;28;20036;-73
2024/01/29 01:02:21;;;;;;;16.80;9.55;;;;;;;3.56;90.18;101241.94;5112377;28;20102;-73
2024/01/29 01:04:46;;;;;;;15.85;10.32;;;;;;;3.47;90.34;101241.47;5119637;27;20053;-73
2024/01/29 01:07:12;;;;;;;18.23;11.07;;;;;;;3.25;92.63;101241.28;5101941;28;20023;-73
2024/01/29 01:09:37;;;;;;;15.60;10.25;;;;;;;3.21;92.93;101237.31;5105504;28;20057;-71
2024/01/29 01:12:03;;;;;;;16.60;10.57;;;;;;;3.12;93.49;101252.59;5092251;28;20103;-70
2024/01/29 01:14:29;;;;;;;16.67;10.40;;;;;;;3.01;94.69;101257.03;5099855;28;20116;-71
2024/01/29 01:16:54;;;;;;;19.00;10.88;;;;;;;3.04;95.76;101262.09;5090665;28;20405;-70
2024/01/29 01:19:20;;;;;;;21.30;11.73;;;;;;;3.10;95.26;101263.88;5091317;28;20408;-71
2024/01/29 01:21:45;;;;;;;16.60;10.27;;;;;;;3.00;95.48;101256.19;5091908;28;20059;-70
2024/01/29 01:24:11;;;;;;;19.55;11.52;;;;;;;3.06;95.64;101249.69;5090905;28;20052;-71
2024/01/29 01:26:36;;;;;;;18.98;10.30;;;;;;;3.17;94.90;101255.47;5107336;28;20439;-71
2024/01/29 01:29:04;;;;;;;25.02;11.35;;;;;;;3.08;95.12;101260.53;5109802;28;20028;-71
2024/01/29 01:31:30;;;;;;;19.13;9.70;;;;;;;3.07;95.20;101251.38;5091735;28;20016;-70
2024/01/29 01:33:56;;;;;;;16.73;9.45;;;;;;;2.98;93.77;101238.16;5106477;28;20545;-71
2024/01/29 01:36:22;;;;;;;13.70;8.63;;;;;;;3.00;94.28;101247.06;5095691;28;20370;-71
2024/01/29 01:38:48;;;;;;;11.25;8.15;;;;;;;2.98;94.57;101249.22;5109618;28;20123;-71
2024/01/29 01:41:13;;;;;;;13.38;7.93;;;;;;;2.98;94.41;101244.53;5093831;28;20027;-71
2024/01/29 01:43:39;;;;;;;11.93;7.25;;;;;;;2.86;95.55;101232.66;5097529;27;20028;-71
2024/01/29 01:46:04;;;;;;;11.02;7.25;;;;;;;2.94;95.58;101246.09;5091308;28;20078;-71
2024/01/29 01:48:33;;;;;;;11.07;6.00;;;;;;;3.09;94.91;101237.31;5106870;28;20087;-71
2024/01/29 01:51:00;;;;;;;9.80;7.07;;;;;;;3.02;94.42;101239.38;5090939;28;20118;-71
2024/01/29 01:53:28;;;;;;;11.15;5.65;;;;;;;2.99;94.78;101237.94;5107343;28;20016;-71
2024/01/29 01:55:53;;;;;;;11.10;7.05;;;;;;;2.62;97.21;101211.34;5092902;28;20405;-71
2024/01/29 01:58:20;;;;;;;12.02;7.65;;;;;;;2.78;97.43;101225.56;5091133;28;20112;-70
2024/01/29 02:00:45;;;;;;;11.43;7.07;;;;;;;2.77;97.53;101224.69;5090191;28;20035;-70
2024/01/29 02:03:11;;;;;;;12.23;6.32;;;;;;;2.93;96.69;101228.69;5091037;28;20028;-71
2024/01/29 02:05:37;;;;;;;12.05;6.00;;;;;;;2.77;97.47;101230.22;5103707;28;20031;-70
2024/01/29 02:08:03;;;;;;;9.98;6.57;;;;;;;2.62;97.69;101211.34;5110597;28;20024;-71
2024/01/29 02:10:29;;;;;;;9.20;5.78;;;;;;;2.70;98.90;101223.13;5096920;28;20103;-70
2024/01/29 02:12:55;;;;;;;8.68;5.68;;;;;;;2.90;98.02;101228.31;5106604;28;20027;-71
2024/01/29 02:15:20;;;;;;;10.73;6.18;;;;;;;3.02;96.66;101220.03;5105609;28;20028;-71
2024/01/29 02:17:46;;;;;;;9.93;6.05;;;;;;;3.07;95.81;101225.66;5091000;28;20103;-74
2024/01/29 02:20:13;;;;;;;8.57;5.75;;;;;;;3.16;95.16;101213.16;5106373;28;20035;-74
2024/01/29 02:22:46;;;;;;;12.38;5.80;;;;;;;3.00;96.14;101216.63;5090716;28;20450;-74
2024/01/29 02:25:15;;;;;;;11.55;6.10;;;;;;;2.96;97.14;101221.84;5094238;28;20062;-74
2024/01/29 02:27:40;;;;;;;10.75;6.50;;;;;;;3.00;96.41;101219.41;5109795;28;20461;-74
2024/01/29 02:30:06;;;;;;;12.13;7.00;;;;;;;3.03;96.35;101227.25;5109036;28;20019;-74
2024/01/29 02:32:32;;;;;;;10.60;6.88;;;;;;;2.99;96.41;101229.63;5089286;28;20116;-74
2024/01/29 02:34:57;;;;;;;12.48;6.53;;;;;;;3.05;96.09;101233.38;5090731;28;20043;-74
2024/01/29 02:37:23;;;;;;;9.55;6.13;;;;;;;3.07;95.87;101222.91;5089562;28;20031;-74
2024/01/29 02:39:51;;;;;;;16.33;10.48;;;;;;;3.22;94.95;101231.53;5089374;28;20027;-74
2024/01/29 02:42:17;;;;;;;20.92;13.38;;;;;;;3.25;94.22;101232.13;5090633;28;20028;-74
2024/01/29 02:44:44;;;;;;;17.80;11.82;;;;;;;3.07;93.81;101225.66;5090555;28;20097;-74
2024/01/29 02:47:09;;;;;;;15.65;8.65;;;;;;;3.12;93.78;101228.53;5101009;28;20036;-74
2024/01/29 02:49:34;;;;;;;15.38;9.10;;;;;;;2.98;93.95;101233.50;5106234;28;20066;-74
2024/01/29 02:52:00;;;;;;;13.27;8.50;;;;;;;3.06;93.25;101237.81;5090523;28;20023;-74
2024/01/29 02:54:25;;;;;;;12.30;7.25;;;;;;;2.99;93.70;101231.53;5092509;28;20116;-74
2024/01/29 02:56:51;;;;;;;14.60;9.02;;;;;;;2.91;93.52;101225.31;5094637;28;20039;-74
2024/01/29 02:59:16;;;;;;;13.20;7.68;;;;;;;3.18;93.07;101235.88;5094500;28;20024;-74
2024/01/29 03:01:42;;;;;;;13.77;8.93;;;;;;;3.33;91.99;101235.38;5094572;28;20028;-74
2024/01/29 03:04:07;;;;;;;11.95;7.93;;;;;;;3.32;90.89;101230.94;5104755;28;20039;-74
2024/01/29 03:06:33;;;;;;;11.43;7.70;;;;;;;3.11;92.15;101231.56;5109793;28;20381;-74
2024/01/29 03:08:59;;;;;;;15.80;7.93;;;;;;;3.10;91.89;101233.47;5094289;28;20488;-74
2024/01/29 03:11:24;;;;;;;23.50;12.70;;;;;;;2.63;93.73;101232.38;5093149;28;20085;-74
2024/01/29 03:13:50;;;;;;;21.70;11.73;;;;;;;2.88;93.71;101236.84;5093074;28;20020;-74
2024/01/29 03:16:15;;;;;;;20.20;11.32;;;;;;;3.01;92.97;101234.91;5094202;28;20024;-74
2024/01/29 03:18:41;;;;;;;33.42;13.93;;;;;;;2.77;93.86;101234.91;5093404;28;20024;-74
2024/01/29 03:21:06;;;;;;;28.05;15.75;;;;;;;2.45;95.78;101232.47;5094078;28;20039;-74
2024/01/29 03:23:32;;;;;;;15.73;9.50;;;;;;;2.45;96.29;101235.25;5092681;28;20426;-74
2024/01/29 03:25:58;;;;;;;18.30;11.23;;;;;;;2.76;95.49;101242.38;5092617;28;20074;-74
2024/01/29 03:28:23;;;;;;;19.85;10.98;;;;;;;2.63;95.40;101243.44;5094224;28;20028;-72
2024/01/29 03:30:48;;;;;;;23.83;12.77;;;;;;;2.46;97.01;101245.22;5093967;28;20416;-71
2024/01/29 03:33:14;;;;;;;17.35;10.50;;;;;;;2.12;99.07;101248.50;5094036;28;20036;-71
2024/01/29 03:35:39;;;;;;;19.08;11.48;;;;;;;1.84;100.00;101249.09;5093609;27;20105;-71
2024/01/29 03:38:05;;;;;;;20.38;10.20;;;;;;;1.65;100.00;101252.72;5109758;28;20484;-71
2024/01/29 03:40:30;;;;;;;16.90;9.55;;;;;;;1.76;100.00;101253.00;5112822;28;20027;-71
2024/01/29 03:42:56;;;;;;;15.95;9.95;;;;;;;1.71;100.00;101241.81;5114114;28;20023;-71
2024/01/29 03:45:21;;;;;;;17.90;8.80;;;;;;;1.54;100.00;101251.56;5113782;28;20030;-71
2024/01/29 03:47:47;;;;;;;18.40;9.07;;;;;;;1.49;100.00;101256.94;5112815;28;20088;-71
2024/01/29 03:50:12;;;;;;;18.50;10.00;;;;;;;1.77;100.00;101255.53;5112687;28;20015;-71
2024/01/29 03:52:38;;;;;;;15.55;9.25;;;;;;;1.75;100.00;101254.91;5111814;28;20051;-71
2024/01/29 03:55:03;;;;;;;19.73;11.88;;;;;;;2.09;100.00;101263.59;5129721;27;20027;-72
2024/01/29 03:57:29;;;;;;;14.18;9.88;;;;;;;2.26;100.00;101256.56;5112535;28;20034;-72
2024/01/29 03:59:56;;;;;;;19.60;9.10;;;;;;;2.21;100.00;101258.09;5129643;27;20028;-71
2024/01/29 04:02:23;;;;;;;15.80;9.13;;;;;;;1.93;100.00;101255.94;5113672;28;20030;-71
2024/01/29 04:04:48;;;;;;;19.80;11.57;;;;;;;1.85;100.00;101262.63;5129000;27;20026;-72
2024/01/29 04:07:15;;;;;;;18.73;10.88;;;;;;;1.76;100.00;101262.13;5103016;28;20023;-71
2024/01/29 04:09:40;;;;;;;21.25;13.88;;;;;;;1.72;100.00;101265.56;5092899;28;20521;-72
2024/01/29 04:12:06;;;;;;;20.48;11.23;;;;;;;1.58;100.00;101262.97;5093145;28;20024;-71
2024/01/29 04:14:31;;;;;;;18.80;11.98;;;;;;;1.47;100.00;101269.25;5092889;28;20020;-71
2024/01/29 04:16:57;;;;;;;18.35;11.20;;;;;;;1.89;100.00;101263.03;5091794;28;20073;-71
2024/01/29 04:19:22;;;;;;;19.80;11.48;;;;;;;1.95;100.00;101271.22;5091754;28;20035;-71
2024/01/29 04:21:48;;;;;;;16.05;10.70;;;;;;;2.21;100.00;101279.38;5091662;28;20067;-71
2024/01/29 04:24:13;;;;;;;13.45;8.90;;;;;;;2.07;100.00;101276.78;5092750;28;20044;-71
2024/01/29 04:26:40;;;;;;;16.90;10.00;;;;;;;1.97;100.00;101279.25;5108367;28;20111;-71
2024/01/29 04:29:06;;;;;;;17.33;10.68;;;;;;;2.15;100.00;101278.38;5091507;28;20034;-71
2024/01/29 04:31:31;;;;;;;25.77;10.80;;;;;;;1.75;100.00;101287.16;5092734;28;20016;-71
2024/01/29 04:33:57;;;;;;;39.50;20.35;;;;;;;1.54;100.00;101278.31;5092930;28;20434;-71
2024/01/29 04:36:22;;;;;;;26.83;16.58;;;;;;;1.50;100.00;101282.59;5093216;28;20034;-71
2024/01/29 04:38:49;;;;;;;24.83;15.40;;;;;;;1.89;100.00;101291.47;5091574;28;20032;-73
2024/01/29 04:41:22;;;;;;;26.77;16.75;;;;;;;2.13;100.00;101293.50;5092129;28;20028;-73
2024/01/29 04:43:48;;;;;;;26.13;18.38;;;;;;;2.22;100.00;101303.13;5091525;28;20515;-74
2024/01/29 04:46:14;;;;;;;24.65;15.98;;;;;;;2.27;99.68;101291.38;5091047;28;20031;-73
2024/01/29 04:48:40;;;;;;;26.80;15.85;;;;;;;2.36;99.11;101301.03;5092537;28;20024;-73
2024/01/29 04:51:06;;;;;;;27.02;15.98;;;;;;;2.42;96.75;101288.22;5092403;28;20430;-74
2024/01/29 04:53:33;;;;;;;30.48;17.02;;;;;;;2.44;96.16;101295.16;5092540;28;20024;-74
2024/01/29 04:55:58;;;;;;;32.28;16.88;;;;;;;2.51;95.64;101297.81;5090879;28;20028;-74
2024/01/29 04:58:24;;;;;;;26.85;16.55;;;;;;;2.51;94.85;101295.91;5103944;28;20035;-74
2024/01/29 05:00:49;;;;;;;25.67;16.50;;;;;;;2.61;94.44;101309.13;5092108;28;20048;-74
2024/01/29 05:03:14;;;;;;;33.10;19.38;;;;;;;2.15;96.32;101305.13;5107715;28;20389;-74
2024/01/29 05:05:40;;;;;;;26.10;16.08;;;;;;;2.24;95.87;101299.06;5092142;28;20371;-74
2024/01/29 05:08:05;;;;;;;26.33;15.02;;;;;;;2.16;96.41;101301.28;5108853;28;20092;-74
2024/01/29 05:10:31;;;;;;;37.60;26.05;;;;;;;2.23;95.19;101305.69;5106654;28;20020;-74
2024/01/29 05:12:56;;;;;;;35.70;13.45;;;;;;;2.17;95.00;101297.47;5092092;28;20020;-73
2024/01/29 05:15:22;;;;;;;20.02;12.77;;;;;;;2.20;94.75;101308.06;5091839;28;20440;-73
2024/01/29 05:17:47;;;;;;;20.58;11.85;;;;;;;2.18;93.98;101297.22;5091590;28;20036;-73
2024/01/29 05:20:13;;;;;;;26.50;11.25;;;;;;;2.20;94.04;101302.53;5091895;28;20024;-73
2024/01/29 05:22:38;;;;;;;15.88;9.75;;;;;;;2.28;93.63;101310.47;5107107;28;20031;-73
2024/01/29 05:25:04;;;;;;;19.92;10.13;;;;;;;2.20;94.00;101306.13;5091827;28;20055;-74
2024/01/29 05:27:29;;;;;;;17.38;10.02;;;;;;;1.87;95.25;101318.47;5089909;28;20065;-74
2024/01/29 05:29:55;;;;;;;16.55;10.32;;;;;;;1.56;96.87;101325.81;5090458;28;20027;-74
2024/01/29 05:32:21;;;;;;;18.85;10.85;;;;;;;1.58;97.44;101317.31;5107195;28;20107;-74
2024/01/29 05:34:48;;;;;;;20.25;10.30;;;;;;;1.74;96.82;101316.69;5091882;28;20047;-73
2024/01/29 05:37:13;;;;;;;16.58;9.20;;;;;;;1.37;99.11;101333.22;5116238;27;20558;-74
2024/01/29 05:39:38;;;;;;;20.50;10.07;;;;;;;1.28;100.00;101326.31;5111854;28;20030;-74
2024/01/29 05:42:04;;;;;;;19.20;10.40;;;;;;;1.02;100.00;101342.88;5110368;28;20031;-74
2024/01/29 05:44:30;;;;;;;18.80;11.48;;;;;;;0.90;100.00;101359.28;5101730;28;20949;-73
2024/01/29 05:46:55;;;;;;;19.98;11.25;;;;;;;0.59;100.00;101363.75;5091312;28;20035;-74
2024/01/29 05:49:22;;;;;;;25.17;12.90;;;;;;;0.51;100.00;101358.50;5091469;28;20424;-72
2024/01/29 05:51:48;;;;;;;31.98;20.05;;;;;;;0.45;100.00;101360.25;5091400;28;20027;-72
2024/01/29 05:54:13;;;;;;;36.78;21.00;;;;;;;0.59;100.00;101355.47;5091246;28;20024;-72
2024/01/29 05:56:43;;;;;;;23.17;11.93;;;;;;;0.65;100.00;101357.34;5091310;28;20094;-71
2024/01/29 05:59:08;;;;;;;30.10;19.20;;;;;;;0.54;100.00;101356.16;5091348;28;20032;-71
2024/01/29 06:01:34;;;;;;;31.05;18.33;;;;;;;0.55;100.00;101354.25;5096745;28;20039;-71
2024/01/29 06:04:00;;;;;;;25.27;13.35;;;;;;;0.56;100.00;101358.69;5111583;28;20076;-71
2024/01/29 06:06:27;;;;;;;33.00;15.23;;;;;;;0.55;100.00;101357.84;5110774;28;20482;-71
2024/01/29 06:08:52;;;;;;;26.45;15.27;;;;;;;0.52;100.00;101361.03;5111624;28;20124;-71
2024/01/29 06:11:19;;;;;;;26.27;12.63;;;;;;;0.47;100.00;101373.78;5111368;28;20027;-71
2024/01/29 06:13:45;;;;;;;30.73;15.77;;;;;;;0.40;100.00;101371.91;5111451;28;20028;-70
2024/01/29 06:16:10;;;;;;;26.70;15.02;;;;;;;0.46;100.00;101361.94;5110105;28;20035;-73
2024/01/29 06:18:36;;;;;;;29.27;19.25;;;;;;;0.77;100.00;101362.16;5105725;28;20031;-72
2024/01/29 06:21:01;;;;;;;30.23;19.05;;;;;;;0.86;100.00;101358.06;5091141;28;20499;-71
2024/01/29 06:23:28;;;;;;;39.78;21.48;;;;;;;0.83;100.00;101375.88;5090792;28;20140;-73
2024/01/29 06:25:54;;;;;;;61.17;30.10;;;;;;;1.03;100.00;101374.91;5093559;28;20023;-72
2024/01/29 06:28:19;;;;;;;61.58;29.27;;;;;;;1.21;100.00;101364.97;5097237;28;20023;-72
2024/01/29 06:30:45;;;;;;;48.38;22.23;;;;;;;1.46;100.00;101364.97;5095004;28;20012;-72
2024/01/29 06:33:10;;;;;;;32.90;18.08;;;;;;;1.56;100.00;101374.59;5106181;28;20023;-72
2024/01/29 06:35:35;;;;;;;35.55;17.23;;;;;;;1.53;100.00;101365.72;5104176;28;20385;-72
2024/01/29 06:38:02;;;;;;;37.55;16.88;;;;;;;1.39;100.00;101377.97;5110484;28;20055;-70
2024/01/29 06:40:28;;;;;;;36.42;18.90;;;;;;;1.21;100.00;101367.75;5111083;28;20216;-75
2024/01/29 06:42:55;;;;;;;25.85;14.43;;;;;;;1.41;100.00;101384.09;5106969;28;20035;-74
2024/01/29 06:45:21;;;;;;;22.95;13.00;;;;;;;1.85;100.00;101383.25;5110882;28;20160;-75
2024/01/29 06:47:46;;;;;;;22.80;11.65;;;;;;;2.03;100.00;101391.50;5106300;28;20114;-74
2024/01/29 06:50:12;;;;;;;19.42;10.95;;;;;;;2.08;100.00;101386.16;5109382;28;20024;-75
2024/01/29 06:52:37;;;;;;;25.98;15.00;;;;;;;2.07;100.00;101381.69;5106146;28;20050;-74
2024/01/29 06:55:03;;;;;;;22.45;11.48;;;;;;;2.24;100.00;101386.59;5108676;28;20031;-74
2024/01/29 06:57:29;;;;;;;22.10;12.18;;;;;;;1.38;100.00;101390.91;5098437;28;20059;-74
2024/01/29 06:59:54;;;;;;;16.98;10.77;;;;;;;1.49;100.00;101391.22;5099879;28;20419;-76
2024/01/29 07:02:21;;;;;;;47.65;13.60;;;;;;;1.75;100.00;101392.88;5101101;28;20092;-75
2024/01/29 07:04:47;;;;;;;18.98;11.77;;;;;;;1.65;100.00;101403.59;5087791;28;20032;-75
2024/01/29 07:07:13;;;;;;;66.80;14.48;;;;;;;1.89;100.00;101401.88;5105199;28;20659;-75
2024/01/29 07:09:38;;;;;;;40.97;13.50;;;;;;;2.36;100.00;101393.00;5099547;28;20031;-72
2024/01/29 07:12:05;;;;;;;19.35;12.50;;;;;;;2.80;100.00;101406.63;5100990;28;20031;-77
2024/01/29 07:14:30;;;;;;;25.88;17.05;;;;;;;2.33;100.00;101406.44;5104422;28;20066;-75
2024/01/29 07:16:56;;;;;;;23.30;14.75;;;;;;;2.45;100.00;101399.03;5103372;28;20562;-73
2024/01/29 07:19:33;;;;;;;19.48;12.32;;;;;;;2.33;100.00;101396.25;5102804;28;20514;-74
2024/01/29 07:22:05;;;;;;;23.88;14.35;;;;;;;2.56;100.00;101402.97;5101815;28;20049;-73
2024/01/29 07:24:34;;;;;;;23.90;12.88;;;;;;;2.63;100.00;101411.16;5097654;28;20082;-73
2024/01/29 07:27:00;;;;;;;21.08;12.68;;;;;;;2.99;99.05;101403.81;5103174;28;20059;-75
2024/01/29 07:29:31;;;;;;;23.77;13.43;;;;;;;3.32;97.02;101409.88;5097270;28;20027;-77
2024/01/29 07:31:58;;;;;;;23.67;13.52;;;;;;;3.67;96.16;101414.59;5102144;28;20032;-72
2024/01/29 07:34:23;;;;;;;34.53;19.23;;;;;;;3.72;92.34;101411.94;5090993;28;20024;-70
2024/01/29 07:36:49;;;;;;;35.47;24.42;;;;;;;3.61;89.37;101407.25;5094375;28;20046;-73
2024/01/29 07:39:15;;;;;;;26.75;18.50;;;;;;;3.90;89.46;101407.34;5099460;28;20028;-70
2024/01/29 07:41:40;;;;;;;32.17;16.45;;;;;;;3.96;86.88;101409.13;5094161;28;20042;-70
2024/01/29 07:44:06;;;;;;;21.83;13.65;;;;;;;4.10;84.30;101414.41;5091561;28;20032;-71
2024/01/29 07:46:31;;;;;;;23.48;12.10;;;;;;;4.40;81.25;101416.97;5096575;28;20499;-72
2024/01/29 07:49:01;;;;;;;21.20;11.88;;;;;;;4.30;80.96;101406.53;5107019;28;20454;-71
2024/01/29 07:51:27;;;;;;;17.67;10.00;;;;;;;4.33;78.58;101397.72;5100133;28;20030;-71
2024/01/29 07:53:53;;;;;;;15.52;9.93;;;;;;;4.59;78.64;101414.91;5092067;28;20435;-72
2024/01/29 07:56:18;;;;;;;13.77;9.00;;;;;;;4.69;75.50;101416.16;5090062;28;20469;-72
2024/01/29 07:58:44;;;;;;;14.70;7.57;;;;;;;4.86;73.32;101424.53;5088501;28;20032;-72
2024/01/29 08:01:09;;;;;;;10.60;6.68;;;;;;;4.96;73.46;101415.56;5101420;28;20023;-72
2024/01/29 08:03:35;;;;;;;12.25;8.10;;;;;;;5.08;72.03;101419.13;5108154;28;20467;-72
2024/01/29 08:06:01;;;;;;;16.50;6.40;;;;;;;5.19;68.74;101423.75;5109233;28;20084;-73
2024/01/29 08:08:26;;;;;;;11.05;7.00;;;;;;;5.11;68.43;101429.72;5099720;28;20116;-76
2024/01/29 08:10:52;;;;;;;13.77;6.57;;;;;;;5.18;67.15;101424.81;5102477;28;20086;-75
2024/01/29 08:13:17;;;;;;;13.18;6.53;;;;;;;5.01;67.72;101419.28;5105929;28;20488;-77
2024/01/29 08:15:43;;;;;;;9.48;5.60;;;;;;;4.98;66.64;101422.53;5108309;28;20512;-75
2024/01/29 08:18:08;;;;;;;11.25;6.75;;;;;;;4.99;66.33;101426.97;5108179;28;20535;-74
2024/01/29 08:20:34;;;;;;;9.70;6.10;;;;;;;5.13;65.74;101433.06;5109396;28;20023;-75
2024/01/29 08:22:59;;;;;;;13.10;6.68;;;;;;;5.22;67.70;101438.22;5109924;27;20070;-73
2024/01/29 08:25:26;;;;;;;16.70;9.82;;;;;;;5.10;67.19;101439.13;5108142;28;20031;-75
2024/01/29 08:27:51;;;;;;;12.10;6.30;;;;;;;5.00;69.00;101441.72;5107351;28;20019;-76
2024/01/29 08:30:17;;;;;;;14.63;7.75;;;;;;;5.15;69.18;101450.31;5105800;28;20492;-80
2024/01/29 08:32:43;;;;;;;16.67;8.77;;;;;;;5.22;69.73;101446.53;5106604;28;20027;-79
2024/01/29 08:35:10;;;;;;;17.92;8.57;;;;;;;5.33;68.85;101448.41;5089693;28;20034;-78
2024/01/29 08:37:35;;;;;;;18.58;8.30;;;;;;;5.43;68.89;101453.28;5109773;27;20619;-80
2024/01/29 08:40:04;;;;;;;14.98;8.38;;;;;;;5.60;68.33;101447.72;5091166;28;20052;-77
2024/01/29 08:42:30;;;;;;;23.60;12.70;;;;;;;5.32;68.91;101457.81;5119009;27;20407;-78
2024/01/29 08:44:56;;;;;;;17.17;9.02;;;;;;;5.31;70.07;101458.91;5105965;28;20028;-78
2024/01/29 08:47:22;;;;;;;17.17;8.68;;;;;;;5.45;70.33;101462.19;5109573;28;20488;-76
2024/01/29 08:49:50;;;;;;;24.25;10.98;;;;;;;5.65;69.61;101456.13;5107440;28;20038;-74
2024/01/29 08:52:16;;;;;;;23.75;11.15;;;;;;;5.55;69.67;101462.34;5109261;28;20747;-79
2024/01/29 08:54:41;;;;;;;21.52;9.70;;;;;;;5.37;67.73;101469.00;5096631;28;20020;-78
2024/01/29 08:57:06;;;;;;;27.38;11.30;;;;;;;5.59;69.02;101471.84;5102318;28;20027;-78
2024/01/29 08:59:32;;;;;;;14.18;8.63;;;;;;;5.65;67.05;101474.72;5095553;28;20396;-78
2024/01/29 09:01:57;;;;;;;14.07;7.38;;;;;;;5.82;63.34;101471.94;5116160;27;20054;-76
2024/01/29 09:04:24;;;;;;;12.82;7.57;;;;;;;5.71;63.89;101480.13;5102736;28;20057;-76
2024/01/29 09:06:50;;;;;;;15.00;6.60;;;;;;;5.48;62.77;101478.31;5098493;28;20054;-75
2024/01/29 09:09:16;;;;;;;9.23;6.15;;;;;;;5.56;62.29;101474.31;5107952;28;20059;-76
2024/01/29 09:11:41;;;;;;;12.57;6.70;;;;;;;5.27;64.80;101469.66;5108001;28;20471;-71
2024/01/29 09:14:07;;;;;;;13.95;6.50;;;;;;;5.40;63.98;101467.66;5108250;28;20526;-75
2024/01/29 09:16:32;;;;;;;15.88;6.30;;;;;;;5.62;63.06;101462.19;5106392;28;20035;-76
2024/01/29 09:18:58;;;;;;;11.35;5.43;;;;;;;5.54;62.39;101462.59;5103658;28;20036;-74
2024/01/29 09:21:25;;;;;;;12.27;5.20;;;;;;;5.69;62.97;101453.69;5088923;28;20067;-70
2024/01/29 09:23:50;;;;;;;10.23;4.35;;;;;;;5.94;63.05;101466.28;5099570;28;20050;-72
2024/01/29 09:26:16;;;;;;;6.95;4.95;;;;;;;5.83;60.99;101468.06;5097560;28;20020;-73
2024/01/29 09:28:43;;;;;;;7.40;5.03;;;;;;;6.10;60.72;101456.28;5103896;28;20039;-71
2024/01/29 09:31:09;;;;;;;9.00;4.88;;;;;;;5.85;59.42;101454.78;5101724;28;20340;-73
2024/01/29 09:33:35;;;;;;;16.13;6.20;;;;;;;5.68;61.75;101441.75;5100909;27;20085;-71
2024/01/29 09:36:01;;;;;;;20.33;7.88;;;;;;;5.83;61.47;101443.09;5099684;28;20787;-71
2024/01/29 09:38:27;;;;;;;14.52;7.43;;;;;;;5.88;62.63;101440.38;5095192;28;20068;-72
2024/01/29 09:40:54;;;;;;;13.52;6.15;;;;;;;5.86;61.31;101448.13;5105934;28;20027;-68
2024/01/29 09:43:21;;;;;;;14.13;6.82;;;;;;;5.89;60.15;101444.81;5095691;28;20046;-73
2024/01/29 09:45:50;;;;;;;7.35;5.32;;;;;;;6.06;60.51;101433.72;5102097;28;20039;-71
2024/01/29 09:48:16;;;;;;;10.82;6.25;;;;;;;6.10;61.62;101425.72;5107717;28;20519;-71
2024/01/29 09:50:44;;;;;;;10.45;6.38;;;;;;;6.22;59.49;101431.16;5106316;28;20062;-73
2024/01/29 09:53:11;;;;;;;9.55;5.72;;;;;;;6.36;61.38;101429.66;5106098;28;20031;-73
2024/01/29 09:55:37;;;;;;;9.77;5.53;;;;;;;6.42;62.49;101438.91;5102030;28;20047;-74
2024/01/29 09:58:04;;;;;;;10.80;5.88;;;;;;;6.20;62.81;101434.19;5103976;28;20507;-73
2024/01/29 10:00:29;;;;;;;9.50;5.10;;;;;;;6.25;63.08;101433.41;5105568;28;20040;-73
2024/01/29 10:03:00;;;;;;;8.93;5.85;;;;;;;6.09;62.25;101435.16;5100127;28;20553;-72
2024/01/29 10:05:30;;;;;;;10.00;5.75;;;;;;;6.16;61.23;101428.28;5106018;28;20050;-72
2024/01/29 10:07:59;;;;;;;10.43;5.53;;;;;;;6.15;62.03;101423.84;5104755;28;20024;-73
2024/01/29 10:10:25;;;;;;;11.45;6.40;;;;;;;6.20;61.03;101409.19;5104352;28;20488;-72
2024/01/29 10:13:01;;;;;;;11.90;6.10;;;;;;;6.10;61.43;101414.59;5104712;28;20020;-71
2024/01/29 10:15:27;;;;;;;21.45;14.98;;;;;;;6.39;59.49;101411.63;5105006;28;20036;-74
2024/01/29 10:17:53;;;;;;;7.95;5.60;;;;;;;6.65;58.75;101414.72;5103783;28;20067;-74
2024/01/29 10:20:19;;;;;;;7.93;5.47;;;;;;;6.50;59.88;101404.25;5106095;28;20058;-72
2024/01/29 10:22:45;;;;;;;9.63;5.43;;;;;;;6.86;58.70;101416.59;5103953;28;20035;-72
2024/01/29 10:25:13;;;;;;;34.58;21.85;;;;;;;7.06;56.24;101408.72;5107110;28;20076;-73
2024/01/29 10:27:39;;;;;;;10.15;5.72;;;;;;;7.04;57.07;101400.66;5107506;28;20039;-74
2024/01/29 10:30:06;;;;;;;7.10;4.70;;;;;;;6.99;57.28;101400.59;5100808;28;20031;-74
2024/01/29 10:32:32;;;;;;;13.32;4.75;;;;;;;6.97;55.10;101400.88;5100442;28;20477;-76
2024/01/29 10:34:58;;;;;;;5.00;4.05;;;;;;;6.90;55.25;101404.97;5097881;28;20027;-74
2024/01/29 10:37:26;;;;;;;23.75;10.35;;;;;;;6.97;53.00;101392.53;5088532;28;20491;-71
2024/01/29 10:39:54;;;;;;;11.15;5.03;;;;;;;6.99;53.36;101403.38;5099650;28;20067;-71
2024/01/29 10:42:20;;;;;;;5.07;3.55;;;;;;;7.07;50.90;101388.16;5102020;28;20067;-72
2024/01/29 10:44:46;;;;;;;8.65;3.60;;;;;;;6.89;52.41;101401.34;5098574;28;20024;-72
2024/01/29 10:47:27;;;;;;;4.80;3.75;;;;;;;7.02;51.41;101387.00;5099807;28;20505;-72
2024/01/29 10:49:53;;;;;;;7.68;4.20;;;;;;;7.01;51.09;101388.09;5092726;28;20020;-78
2024/01/29 10:52:20;;;;;;;9.57;5.22;;;;;;;7.35;52.22;101397.28;5092109;28;20043;-73
2024/01/29 10:54:46;;;;;;;7.90;3.97;;;;;;;7.19;50.81;101387.97;5101290;28;20081;-74
2024/01/29 10:57:13;;;;;;;3.88;3.28;;;;;;;7.33;50.46;101377.22;5097936;28;20491;-75
2024/01/29 10:59:41;;;;;;;6.18;4.18;;;;;;;7.34;51.58;101384.47;5098147;28;20183;-75
2024/01/29 11:02:13;;;;;;;9.10;4.13;;;;;;;7.29;50.88;101386.09;5103640;28;20019;-74
2024/01/29 11:04:38;;;;;;;4.65;3.28;;;;;;;6.93;50.87;101380.22;5101188;28;20114;-74
2024/01/29 11:07:18;;;;;;;4.88;3.83;;;;;;;7.25;51.12;101379.38;5098892;28;20062;-75
2024/01/29 11:10:07;;;;;;;4.63;3.67;;;;;;;7.49;49.84;101376.22;5095711;28;20020;-76
2024/01/29 11:12:35;;;;;;;4.68;3.78;;;;;;;7.19;48.94;101371.28;5105173;28;20034;-73
2024/01/29 11:15:04;;;;;;;6.38;4.00;;;;;;;7.04;49.13;101367.25;5104983;28;20024;-73
2024/01/29 11:17:30;;;;;;;5.10;3.30;;;;;;;6.84;49.48;101365.13;5104515;28;20613;-76